createdAt,value
2018-09-10T00:00:38.220Z,100871.77
2018-09-10T00:05:41.728Z,100870.06
2018-09-10T00:10:45.223Z,100874.97
2018-09-10T00:15:48.691Z,100876.95
2018-09-10T00:20:52.148Z,100883.20
2018-09-10T00:25:55.627Z,100883.69
2018-09-10T00:30:59.199Z,100874.84
2018-09-10T00:36:02.642Z,100873.12
2018-09-10T00:41:06.088Z,100877.71
2018-09-10T00:46:09.527Z,100878.08
2018-09-10T00:51:12.960Z,100884.45
2018-09-10T00:56:16.402Z,100875.38
2018-09-10T01:01:19.868Z,100880.91
2018-09-10T01:06:23.330Z,100880.77
2018-09-10T01:11:26.775Z,100872.95
2018-09-10T01:16:30.333Z,100875.51
2018-09-10T01:21:33.816Z,100868.28
2018-09-10T01:26:37.281Z,100861.30
2018-09-10T01:31:40.737Z,100858.11
2018-09-10T01:36:44.179Z,100864.36
2018-09-10T01:41:47.628Z,100863.38
2018-09-10T01:46:51.064Z,100857.13
2018-09-10T01:51:54.527Z,100854.06
2018-09-10T01:56:57.984Z,100850.02
2018-09-10T02:02:01.433Z,100854.70
2018-09-10T02:07:05.070Z,100852.48
2018-09-10T02:12:12.643Z,100849.80
2018-09-10T02:17:16.168Z,100843.05
2018-09-10T02:22:19.691Z,100845.88
2018-09-10T02:27:23.176Z,100844.14
2018-09-10T02:32:26.616Z,100840.23
2018-09-10T02:37:30.086Z,100835.82
2018-09-10T02:42:33.563Z,100835.82
2018-09-10T02:47:37.004Z,100833.75
2018-09-10T02:52:40.443Z,100831.05
2018-09-10T02:57:43.928Z,100834.24
2018-09-10T03:02:47.404Z,100841.84
2018-09-10T03:07:50.841Z,100845.66
2018-09-10T03:12:55.169Z,100848.35
2018-09-10T03:17:58.721Z,100847.10
2018-09-10T03:23:02.091Z,100845.16
2018-09-10T03:28:05.644Z,100838.06
2018-09-10T03:33:09.131Z,100839.94
2018-09-10T03:38:12.582Z,100840.40
2018-09-10T03:43:16.039Z,100839.08
2018-09-10T03:48:19.510Z,100842.73
2018-09-10T03:53:22.965Z,100842.03
2018-09-10T03:58:26.413Z,100835.39
2018-09-10T04:03:29.871Z,100842.39
2018-09-10T04:08:33.313Z,100846.55
2018-09-10T04:13:36.781Z,100858.45
2018-09-10T04:18:40.220Z,100863.23
2018-09-10T04:23:43.679Z,100861.39
2018-09-10T04:28:47.126Z,100867.39
2018-09-10T04:33:50.555Z,100874.63
2018-09-10T04:38:54.011Z,100871.20
2018-09-10T04:43:57.449Z,100883.45
2018-09-10T04:49:00.891Z,100877.42
2018-09-10T04:54:04.853Z,100878.17
2018-09-10T04:59:08.275Z,100869.73
2018-09-10T05:04:11.730Z,100867.26
2018-09-10T05:09:15.215Z,100870.08
2018-09-10T05:14:18.641Z,100868.00
2018-09-10T05:19:22.084Z,100869.97
2018-09-10T05:24:25.528Z,100867.40
2018-09-10T05:29:28.952Z,100868.97
2018-09-10T05:34:32.398Z,100873.12
2018-09-10T05:39:35.853Z,100877.17
2018-09-10T05:44:39.291Z,100874.48
2018-09-10T05:49:42.738Z,100875.95
2018-09-10T05:54:46.187Z,100880.97
2018-09-10T05:59:49.635Z,100897.00
2018-09-10T06:04:53.076Z,100890.88
2018-09-10T06:09:56.521Z,100901.17
2018-09-10T06:14:59.965Z,100898.11
2018-09-10T06:20:03.495Z,100890.03
2018-09-10T06:25:06.918Z,100893.09
2018-09-10T06:30:10.359Z,100887.21
2018-09-10T06:35:13.838Z,100891.74
2018-09-10T06:40:17.279Z,100897.62
2018-09-10T06:45:20.727Z,100901.17
2018-09-10T06:50:24.384Z,100903.61
2018-09-10T06:55:27.812Z,100911.47
2018-09-10T07:00:31.251Z,100904.00
2018-09-10T07:05:34.725Z,100913.30
2018-09-10T07:10:39.002Z,100922.57
2018-09-10T07:15:43.271Z,100930.00
2018-09-10T07:20:46.806Z,100924.38
2018-09-10T07:25:50.247Z,100920.28
2018-09-10T07:30:54.282Z,100918.55
2018-09-10T07:35:57.767Z,100918.94
2018-09-10T07:41:02.098Z,100923.52
2018-09-10T07:46:06.184Z,100915.59
2018-09-10T07:51:09.666Z,100916.02
2018-09-10T07:56:13.095Z,100912.98
2018-09-10T08:01:16.534Z,100914.87
2018-09-10T08:06:19.965Z,100909.86
2018-09-10T08:11:23.419Z,100908.22
2018-09-10T08:16:26.907Z,100909.50
2018-09-10T08:21:30.403Z,100903.28
2018-09-10T08:26:33.860Z,100895.80
2018-09-10T08:31:37.314Z,100900.56
2018-09-10T08:36:40.759Z,100897.34
2018-09-10T08:41:44.205Z,100899.91
2018-09-10T08:46:47.731Z,100901.91
2018-09-10T08:51:51.174Z,100903.26
2018-09-10T08:56:54.815Z,100899.38
2018-09-10T09:01:58.265Z,100902.35
2018-09-10T09:07:01.708Z,100894.48
2018-09-10T09:12:05.167Z,100899.33
2018-09-10T09:17:08.607Z,100897.77
2018-09-10T09:22:12.043Z,100887.58
2018-09-10T09:27:15.512Z,100885.16
2018-09-10T09:32:18.950Z,100891.86
2018-09-10T09:37:27.795Z,100877.73
2018-09-10T09:42:36.663Z,100878.38
2018-09-10T09:47:40.107Z,100875.84
2018-09-10T09:52:43.562Z,100865.95
2018-09-10T09:57:47.107Z,100860.37
2018-09-10T10:02:56.730Z,100860.77
2018-09-10T10:08:00.163Z,100860.91
2018-09-10T10:13:03.620Z,100860.03
2018-09-10T10:18:07.061Z,100860.91
2018-09-10T10:23:10.586Z,100853.20
2018-09-10T10:28:14.083Z,100836.67
2018-09-10T10:33:17.503Z,100840.22
2018-09-10T10:38:20.947Z,100833.95
2018-09-10T10:43:24.405Z,100845.61
2018-09-10T10:48:27.831Z,100836.31
2018-09-10T10:53:31.292Z,100837.28
2018-09-10T10:58:34.783Z,100830.88
2018-09-10T11:03:38.907Z,100824.77
2018-09-10T11:08:42.412Z,100825.98
2018-09-10T11:13:45.848Z,100837.50
2018-09-10T11:18:49.301Z,100831.97
2018-09-10T11:23:52.770Z,100830.27
2018-09-10T11:28:56.203Z,100825.59
2018-09-10T11:33:59.667Z,100826.59
2018-09-10T11:39:03.215Z,100826.55
2018-09-10T11:44:06.807Z,100824.63
2018-09-10T11:49:10.275Z,100826.79
2018-09-10T11:54:13.716Z,100816.94
2018-09-10T11:59:17.427Z,100834.11
2018-09-10T12:04:20.897Z,100822.45
2018-09-10T12:09:24.356Z,100819.23
2018-09-10T12:14:27.799Z,100815.82
2018-09-10T12:19:31.728Z,100802.81
2018-09-10T12:24:35.207Z,100789.59
2018-09-10T12:29:38.650Z,100782.96
2018-09-10T12:34:42.140Z,100783.31
2018-09-10T12:39:45.707Z,100784.00
2018-09-10T12:44:49.084Z,100777.61
2018-09-10T12:49:52.531Z,100793.63
2018-09-10T12:54:56.043Z,100787.29
2018-09-10T12:59:59.480Z,100774.58
2018-09-10T13:05:02.965Z,100773.84
2018-09-10T13:10:07.015Z,100770.03
2018-09-10T13:15:10.460Z,100765.90
2018-09-10T13:20:13.979Z,100748.14
2018-09-10T13:25:17.435Z,100755.41
2018-09-10T13:30:20.868Z,100748.06
2018-09-10T13:35:24.333Z,100742.69
2018-09-10T13:40:27.780Z,100740.20
2018-09-10T13:45:31.329Z,100743.95
2018-09-10T13:50:34.833Z,100750.09
2018-09-10T13:55:38.296Z,100754.39
2018-09-10T14:00:41.743Z,100760.59
2018-09-10T14:05:45.200Z,100761.44
2018-09-10T14:10:48.716Z,100763.89
2018-09-10T14:15:53.914Z,100761.58
2018-09-10T14:20:57.421Z,100764.50
2018-09-10T14:26:00.866Z,100757.09
2018-09-10T14:31:04.540Z,100754.61
2018-09-10T14:36:08.203Z,100743.41
2018-09-10T14:41:12.026Z,100747.70
2018-09-10T14:46:15.508Z,100741.45
2018-09-10T14:51:18.947Z,100735.64
2018-09-10T14:56:22.446Z,100731.73
2018-09-10T15:01:26.016Z,100735.89
2018-09-10T15:06:29.531Z,100730.11
2018-09-10T15:11:32.970Z,100726.20
2018-09-10T15:16:36.531Z,100710.99
2018-09-10T15:21:40.064Z,100721.02
2018-09-10T15:26:43.518Z,100722.59
2018-09-10T15:31:47.063Z,100716.06
2018-09-10T15:36:50.553Z,100721.56
2018-09-10T15:41:54.010Z,100717.23
2018-09-10T15:46:57.524Z,100722.36
2018-09-10T15:52:01.161Z,100713.59
2018-09-10T15:57:04.618Z,100712.20
2018-09-10T16:02:08.088Z,100704.16
2018-09-10T16:07:11.608Z,100698.09
2018-09-10T16:12:15.049Z,100698.33
2018-09-10T16:17:18.486Z,100702.11
2018-09-10T16:22:21.955Z,100712.95
2018-09-10T16:27:25.416Z,100716.50
2018-09-10T16:32:28.890Z,100731.81
2018-09-10T16:37:32.323Z,100729.76
2018-09-10T16:42:35.758Z,100725.06
2018-09-10T16:47:39.332Z,100716.96
2018-09-10T16:52:42.920Z,100706.87
2018-09-10T16:57:46.445Z,100715.68
2018-09-10T17:02:50.168Z,100713.41
2018-09-10T17:07:53.695Z,100706.16
2018-09-10T17:12:57.197Z,100712.69
2018-09-10T17:18:00.688Z,100699.30
2018-09-10T17:23:04.163Z,100693.83
2018-09-10T17:28:07.755Z,100694.50
2018-09-10T17:33:11.361Z,100694.83
2018-09-10T17:38:15.217Z,100705.09
2018-09-10T17:43:18.704Z,100701.79
2018-09-10T17:48:22.216Z,100695.99
2018-09-10T17:53:25.802Z,100698.80
2018-09-10T17:58:29.322Z,100702.75
2018-09-10T18:03:32.799Z,100704.20
2018-09-10T18:08:36.625Z,100708.40
2018-09-10T18:13:40.120Z,100717.50
2018-09-10T18:18:43.614Z,100720.54
2018-09-10T18:23:47.152Z,100755.91
2018-09-10T18:28:50.624Z,100759.93
2018-09-10T18:33:54.092Z,100754.12
2018-09-10T18:38:57.559Z,100779.11
2018-09-10T18:44:01.144Z,100775.64
2018-09-10T18:49:04.651Z,100795.89
2018-09-10T18:54:08.064Z,100797.58
2018-09-10T18:59:11.523Z,100795.36
2018-09-10T19:04:15.057Z,100799.15
2018-09-10T19:09:18.552Z,100813.06
2018-09-10T19:14:22.505Z,100830.66
2018-09-10T19:19:26.656Z,100832.01
2018-09-10T19:24:30.552Z,100820.23
2018-09-10T19:29:34.591Z,100814.72
2018-09-10T19:34:38.653Z,100811.95
2018-09-10T19:39:43.093Z,100828.70
2018-09-10T19:44:47.451Z,100831.23
2018-09-10T19:49:50.900Z,100827.84
2018-09-10T19:54:54.386Z,100831.68
2018-09-10T19:59:57.836Z,100847.19
2018-09-10T20:05:01.425Z,100842.77
2018-09-10T20:10:05.574Z,100830.47
2018-09-10T20:15:10.885Z,100839.20
2018-09-10T20:20:14.601Z,100824.23
2018-09-10T20:25:18.143Z,100819.33
2018-09-10T20:30:21.637Z,100825.50
2018-09-10T20:35:25.110Z,100809.52
2018-09-10T20:40:28.666Z,100809.80
2018-09-10T20:45:32.260Z,100816.55
2018-09-10T20:50:35.770Z,100819.38
2018-09-10T20:55:39.415Z,100824.29
2018-09-10T21:00:42.876Z,100812.63
2018-09-10T21:05:46.487Z,100823.31
2018-09-10T21:10:50.213Z,100822.12
2018-09-10T21:15:53.727Z,100820.41
2018-09-10T21:20:57.204Z,100832.32
2018-09-10T21:26:00.701Z,100836.02
2018-09-10T21:31:04.250Z,100840.42
2018-09-10T21:36:07.696Z,100846.91
2018-09-10T21:41:11.203Z,100845.56
2018-09-10T21:46:14.697Z,100856.23
2018-09-10T21:51:18.174Z,100855.94
2018-09-10T21:56:21.744Z,100870.52
2018-09-10T22:01:25.285Z,100866.73
2018-09-10T22:06:28.797Z,100853.95
2018-09-10T22:11:32.414Z,100861.92
2018-09-10T22:16:36.317Z,100865.73
2018-09-10T22:21:39.912Z,100870.92
2018-09-10T22:26:43.496Z,100866.16
2018-09-10T22:31:47.005Z,100871.77
2018-09-10T22:36:50.454Z,100879.24
2018-09-10T22:41:54.059Z,100889.05
2018-09-10T22:46:58.160Z,100884.28
2018-09-10T22:52:01.656Z,100888.09
2018-09-10T22:57:05.199Z,100883.42
2018-09-10T23:02:08.669Z,100884.41
2018-09-10T23:07:12.111Z,100879.15
2018-09-10T23:12:16.056Z,100881.27
2018-09-10T23:17:19.502Z,100895.74
2018-09-10T23:22:22.946Z,100881.36
2018-09-10T23:27:26.403Z,100869.71
2018-09-10T23:32:29.836Z,100887.52
2018-09-10T23:37:33.294Z,100883.82
2018-09-10T23:42:36.752Z,100885.53
2018-09-10T23:47:40.232Z,100888.95
2018-09-10T23:52:43.683Z,100892.42
2018-09-10T23:57:47.356Z,100894.27
